createdAt,value
2023-05-15T00:00:54.588Z,6.82
2023-05-15T00:03:23.991Z,4.72
2023-05-15T00:05:52.496Z,4.28
2023-05-15T00:08:20.528Z,6.93
2023-05-15T00:11:00.848Z,4.95
2023-05-15T00:13:29.834Z,5.78
2023-05-15T00:15:57.845Z,4.63
2023-05-15T00:18:27.583Z,8.05
2023-05-15T00:20:56.102Z,5.95
2023-05-15T00:23:23.972Z,4.80
2023-05-15T00:25:51.933Z,6.53
2023-05-15T00:28:19.779Z,5.65
2023-05-15T00:30:47.673Z,8.88
2023-05-15T00:33:15.737Z,8.23
2023-05-15T00:35:46.162Z,6.28
2023-05-15T00:38:14.011Z,8.15
2023-05-15T00:40:42.452Z,8.52
2023-05-15T00:43:11.085Z,10.27
2023-05-15T00:45:40.258Z,9.70
2023-05-15T00:48:08.769Z,10.32
2023-05-15T00:50:36.894Z,9.30
2023-05-15T00:53:07.446Z,6.10
2023-05-15T00:55:35.479Z,9.77
2023-05-15T00:58:05.163Z,11.18
2023-05-15T01:00:33.632Z,10.18
2023-05-15T01:03:01.936Z,10.45
2023-05-15T01:05:30.282Z,10.50
2023-05-15T01:08:02.514Z,11.75
2023-05-15T01:10:31.956Z,9.52
2023-05-15T01:13:00.484Z,12.27
2023-05-15T01:15:28.438Z,7.38
2023-05-15T01:17:56.474Z,7.25
2023-05-15T01:20:24.763Z,9.65
2023-05-15T01:23:00.666Z,8.07
2023-05-15T01:25:46.150Z,8.70
2023-05-15T01:28:17.896Z,8.20
2023-05-15T01:30:47.795Z,10.38
2023-05-15T01:33:19.169Z,8.48
2023-05-15T01:35:52.264Z,7.15
2023-05-15T01:38:23.646Z,7.38
2023-05-15T01:40:58.011Z,7.97
2023-05-15T01:43:29.565Z,5.75
2023-05-15T01:45:58.277Z,7.75
2023-05-15T01:48:26.787Z,8.38
2023-05-15T01:51:01.194Z,9.02
2023-05-15T01:53:29.584Z,8.30
2023-05-15T01:55:58.052Z,11.95
2023-05-15T01:58:29.293Z,11.32
2023-05-15T02:00:57.839Z,11.63
2023-05-15T02:03:26.099Z,10.75
2023-05-15T02:05:56.652Z,12.65
2023-05-15T02:08:29.133Z,14.10
2023-05-15T02:10:58.008Z,10.32
2023-05-15T02:13:26.440Z,9.32
2023-05-15T02:15:57.343Z,8.48
2023-05-15T02:18:28.523Z,12.77
2023-05-15T02:21:01.046Z,8.02
2023-05-15T02:23:28.899Z,9.98
2023-05-15T02:26:06.027Z,9.50
2023-05-15T02:28:37.221Z,14.63
2023-05-15T02:31:09.308Z,7.63
2023-05-15T02:33:42.114Z,13.68
2023-05-15T02:36:12.381Z,9.05
2023-05-15T02:38:41.928Z,9.95
2023-05-15T02:41:11.111Z,10.52
2023-05-15T02:43:40.265Z,10.10
2023-05-15T02:46:09.772Z,11.85
2023-05-15T02:48:39.089Z,10.73
2023-05-15T02:51:08.482Z,13.38
2023-05-15T02:53:40.440Z,13.48
2023-05-15T02:56:08.436Z,11.43
2023-05-15T02:58:36.459Z,9.23
2023-05-15T03:01:04.735Z,9.50
2023-05-15T03:03:34.185Z,9.13
2023-05-15T03:06:02.162Z,9.20
2023-05-15T03:08:30.038Z,11.98
2023-05-15T03:10:58.403Z,10.00
2023-05-15T03:13:26.446Z,8.85
2023-05-15T03:15:54.969Z,9.65
2023-05-15T03:18:22.985Z,11.00
2023-05-15T03:20:53.988Z,14.18
2023-05-15T03:23:21.936Z,10.20
2023-05-15T03:25:50.062Z,9.93
2023-05-15T03:28:17.994Z,10.02
2023-05-15T03:30:45.870Z,9.73
2023-05-15T03:33:14.483Z,13.05
2023-05-15T03:35:42.656Z,13.43
2023-05-15T03:38:14.150Z,13.55
2023-05-15T03:40:42.020Z,13.82
2023-05-15T03:43:09.949Z,14.50
2023-05-15T03:45:37.942Z,13.82
2023-05-15T03:48:06.357Z,13.13
2023-05-15T03:50:34.678Z,10.48
2023-05-15T03:53:03.833Z,11.77
2023-05-15T03:55:33.207Z,12.35
2023-05-15T03:58:01.250Z,10.45
2023-05-15T04:00:29.224Z,12.02
2023-05-15T04:02:57.172Z,13.65
2023-05-15T04:05:25.608Z,13.60
2023-05-15T04:07:53.747Z,14.55
2023-05-15T04:10:22.417Z,9.70
2023-05-15T04:12:51.995Z,10.35
2023-05-15T04:15:20.593Z,10.98
2023-05-15T04:17:49.362Z,12.48
2023-05-15T04:20:19.162Z,10.77
2023-05-15T04:22:47.178Z,12.18
2023-05-15T04:25:16.229Z,12.77
2023-05-15T04:27:44.812Z,11.20
2023-05-15T04:30:14.533Z,14.05
2023-05-15T04:32:42.461Z,19.13
2023-05-15T04:35:12.421Z,36.33
2023-05-15T04:37:41.969Z,17.65
2023-05-15T04:40:10.715Z,14.13
2023-05-15T04:42:39.399Z,12.45
2023-05-15T04:45:08.277Z,17.77
2023-05-15T04:47:37.655Z,12.52
2023-05-15T04:50:06.621Z,13.90
2023-05-15T04:52:34.624Z,15.10
2023-05-15T04:55:02.525Z,16.20
2023-05-15T04:57:32.957Z,14.60
2023-05-15T05:00:00.828Z,16.45
2023-05-15T05:02:28.763Z,17.45
2023-05-15T05:04:58.441Z,20.77
2023-05-15T05:07:26.317Z,14.98
2023-05-15T05:09:54.440Z,17.10
2023-05-15T05:12:22.326Z,20.05
2023-05-15T05:14:50.374Z,15.07
2023-05-15T05:17:18.536Z,14.10
2023-05-15T05:19:47.635Z,14.10
2023-05-15T05:22:16.954Z,18.67
2023-05-15T05:24:44.837Z,14.70
2023-05-15T05:27:12.839Z,15.27
2023-05-15T05:29:41.064Z,15.18
2023-05-15T05:32:09.144Z,12.90
2023-05-15T05:34:37.673Z,14.82
2023-05-15T05:37:06.352Z,14.75
2023-05-15T05:39:36.261Z,14.77
2023-05-15T05:42:04.253Z,14.05
2023-05-15T05:44:32.353Z,12.55
2023-05-15T05:47:00.400Z,12.93
2023-05-15T05:49:28.320Z,13.85
2023-05-15T05:51:56.366Z,15.30
2023-05-15T05:54:24.211Z,12.93
2023-05-15T05:56:53.429Z,14.45
2023-05-15T05:59:21.616Z,12.70
2023-05-15T06:01:51.044Z,12.80
2023-05-15T06:04:21.220Z,12.85
2023-05-15T06:06:50.236Z,15.18
2023-05-15T06:09:18.276Z,10.48
2023-05-15T06:11:46.572Z,11.90
2023-05-15T06:14:15.867Z,12.70
2023-05-15T06:16:44.056Z,13.15
2023-05-15T06:19:12.394Z,12.55
2023-05-15T06:21:40.421Z,12.57
2023-05-15T06:24:09.005Z,11.15
2023-05-15T06:26:37.542Z,13.60
2023-05-15T06:29:05.471Z,12.80
2023-05-15T06:31:34.899Z,14.05
2023-05-15T06:34:03.011Z,11.85
2023-05-15T06:36:31.534Z,13.93
2023-05-15T06:38:59.476Z,10.52
2023-05-15T06:41:27.492Z,14.75
2023-05-15T06:43:56.166Z,13.45
2023-05-15T06:46:37.935Z,14.02
2023-05-15T06:49:07.320Z,14.73
2023-05-15T06:51:35.152Z,12.38
2023-05-15T06:54:03.016Z,11.45
2023-05-15T06:56:30.976Z,15.48
2023-05-15T06:58:58.887Z,14.77
2023-05-15T07:01:26.881Z,11.13
2023-05-15T07:03:55.388Z,11.07
2023-05-15T07:06:27.123Z,9.50
2023-05-15T07:08:55.487Z,8.57
2023-05-15T07:11:23.355Z,8.20
2023-05-15T07:13:52.600Z,9.75
2023-05-15T07:16:20.718Z,10.52
2023-05-15T07:18:51.317Z,10.40
2023-05-15T07:21:19.380Z,9.43
2023-05-15T07:23:48.617Z,9.68
2023-05-15T07:26:23.759Z,9.50
2023-05-15T07:28:59.488Z,9.95
2023-05-15T07:31:31.302Z,8.30
2023-05-15T07:33:59.235Z,9.82
2023-05-15T07:36:27.105Z,9.35
2023-05-15T07:38:57.060Z,9.00
2023-05-15T07:41:25.167Z,9.68
2023-05-15T07:43:53.078Z,11.90
2023-05-15T07:46:21.643Z,9.45
2023-05-15T07:48:49.715Z,8.73
2023-05-15T07:51:17.710Z,7.97
2023-05-15T07:53:45.713Z,10.68
2023-05-15T07:56:15.197Z,11.27
2023-05-15T07:58:43.110Z,8.10
2023-05-15T08:01:11.578Z,7.60
2023-05-15T08:03:39.453Z,9.10
2023-05-15T08:06:08.456Z,9.05
2023-05-15T08:08:36.453Z,12.57
2023-05-15T08:11:04.468Z,9.90
2023-05-15T08:13:33.795Z,9.48
2023-05-15T08:16:01.769Z,8.65
2023-05-15T08:18:29.664Z,10.25
2023-05-15T08:20:57.614Z,11.35
2023-05-15T08:23:25.555Z,11.55
2023-05-15T08:25:53.830Z,11.50
2023-05-15T08:28:22.109Z,11.23
2023-05-15T08:30:51.387Z,12.13
2023-05-15T08:33:19.271Z,12.13
2023-05-15T08:35:47.513Z,13.65
2023-05-15T08:38:17.773Z,12.95
2023-05-15T08:40:48.373Z,10.85
2023-05-15T08:43:17.727Z,14.00
2023-05-15T08:45:45.771Z,11.82
2023-05-15T08:48:17.418Z,14.02
2023-05-15T08:50:46.032Z,11.63
2023-05-15T08:53:14.357Z,10.98
2023-05-15T08:55:42.751Z,10.55
2023-05-15T08:58:10.736Z,9.57
2023-05-15T09:00:39.036Z,15.15
2023-05-15T09:03:06.937Z,13.80
2023-05-15T09:05:38.061Z,11.00
2023-05-15T09:08:08.174Z,11.05
2023-05-15T09:10:37.299Z,8.07
2023-05-15T09:13:06.168Z,13.32
2023-05-15T09:15:34.383Z,6.63
2023-05-15T09:18:02.756Z,5.57
2023-05-15T09:20:34.607Z,10.40
2023-05-15T09:23:05.384Z,11.88
2023-05-15T09:25:34.594Z,8.70
2023-05-15T09:28:05.560Z,11.13
2023-05-15T09:30:34.844Z,4.28
2023-05-15T09:33:03.928Z,6.43
2023-05-15T09:35:36.109Z,5.25
2023-05-15T09:38:06.193Z,4.95
2023-05-15T09:40:34.121Z,6.03
2023-05-15T09:43:02.424Z,9.48
2023-05-15T09:45:33.558Z,5.63
2023-05-15T09:48:02.598Z,12.20
2023-05-15T09:50:34.675Z,4.22
2023-05-15T09:53:02.895Z,3.53
2023-05-15T09:55:34.377Z,3.08
2023-05-15T09:58:06.604Z,5.22
2023-05-15T10:00:48.455Z,5.38
2023-05-15T10:03:21.162Z,4.95
2023-05-15T10:05:49.274Z,4.22
2023-05-15T10:08:17.584Z,7.57
2023-05-15T10:10:47.313Z,4.70
2023-05-15T10:13:15.272Z,3.35
2023-05-15T10:15:44.422Z,4.28
2023-05-15T10:18:12.985Z,4.03
2023-05-15T10:20:41.040Z,3.40
2023-05-15T10:23:12.644Z,4.22
2023-05-15T10:25:43.058Z,7.80
2023-05-15T10:28:13.121Z,3.30
2023-05-15T10:30:41.159Z,4.63
2023-05-15T10:33:09.628Z,3.60
2023-05-15T10:35:39.295Z,5.72
2023-05-15T10:38:10.248Z,3.92
2023-05-15T10:40:38.893Z,2.65
2023-05-15T10:43:06.887Z,3.33
2023-05-15T10:45:36.506Z,2.63
2023-05-15T10:48:07.844Z,5.22
2023-05-15T10:50:38.444Z,4.47
2023-05-15T10:53:06.713Z,2.50
2023-05-15T10:55:34.637Z,2.05
2023-05-15T10:58:02.975Z,2.03
2023-05-15T11:00:32.433Z,5.13
2023-05-15T11:03:04.243Z,4.50
2023-05-15T11:05:52.561Z,2.97
2023-05-15T11:08:32.541Z,5.20
2023-05-15T11:11:00.495Z,1.42
2023-05-15T11:13:29.706Z,2.85
2023-05-15T11:15:58.417Z,4.55
2023-05-15T11:18:30.080Z,1.33
2023-05-15T11:21:08.335Z,4.22
2023-05-15T11:23:40.125Z,2.25
2023-05-15T11:26:08.218Z,4.43
2023-05-15T11:28:42.886Z,4.75
2023-05-15T11:31:10.968Z,4.57
2023-05-15T11:33:41.732Z,2.28
2023-05-15T11:36:09.887Z,3.65
2023-05-15T11:38:38.855Z,1.88
2023-05-15T11:41:18.288Z,2.05
2023-05-15T11:43:46.883Z,2.95
2023-05-15T11:46:15.255Z,2.95
2023-05-15T11:48:47.857Z,1.60
2023-05-15T11:51:22.545Z,1.80
2023-05-15T11:53:51.223Z,1.70
2023-05-15T11:56:19.661Z,3.50
2023-05-15T11:58:49.865Z,1.48
2023-05-15T12:01:18.226Z,2.13
2023-05-15T12:03:50.285Z,2.90
2023-05-15T12:06:19.130Z,1.13
2023-05-15T12:08:52.059Z,3.20
2023-05-15T12:11:24.457Z,1.30
2023-05-15T12:13:52.853Z,4.43
2023-05-15T12:16:24.410Z,2.78
2023-05-15T12:18:54.708Z,1.55
2023-05-15T12:21:22.938Z,1.50
2023-05-15T12:24:03.384Z,2.20
2023-05-15T12:26:35.067Z,2.13
2023-05-15T12:29:03.620Z,1.58
2023-05-15T12:31:31.919Z,1.75
2023-05-15T12:34:02.164Z,7.85
2023-05-15T12:36:31.127Z,1.27
2023-05-15T12:38:58.991Z,1.70
2023-05-15T12:41:30.280Z,2.33
2023-05-15T12:44:01.229Z,4.65
2023-05-15T12:46:31.928Z,3.13
2023-05-15T12:49:01.746Z,4.53
2023-05-15T12:51:30.231Z,5.03
2023-05-15T12:53:59.028Z,2.75
2023-05-15T12:56:27.113Z,1.83
2023-05-15T12:58:57.162Z,2.33
2023-05-15T13:01:25.292Z,1.58
2023-05-15T13:03:54.761Z,1.40
2023-05-15T13:06:38.352Z,2.20
2023-05-15T13:09:13.489Z,2.28
2023-05-15T13:11:44.558Z,2.22
2023-05-15T13:14:17.752Z,3.60
2023-05-15T13:16:46.846Z,4.93
2023-05-15T13:19:15.893Z,2.08
2023-05-15T13:21:46.289Z,2.78
2023-05-15T13:24:21.682Z,1.92
2023-05-15T13:26:49.565Z,3.25
2023-05-15T13:29:17.498Z,3.55
2023-05-15T13:31:45.647Z,2.33
2023-05-15T13:34:13.981Z,9.75
2023-05-15T13:36:42.044Z,1.67
2023-05-15T13:39:11.352Z,1.60
2023-05-15T13:41:39.322Z,3.90
2023-05-15T13:44:07.329Z,3.50
2023-05-15T13:46:37.801Z,4.60
2023-05-15T13:49:07.075Z,2.38
2023-05-15T13:51:35.782Z,1.73
2023-05-15T13:54:03.857Z,1.85
2023-05-15T13:56:33.447Z,3.20
2023-05-15T13:59:04.242Z,9.20
2023-05-15T14:01:32.176Z,5.72
2023-05-15T14:04:00.115Z,4.15
2023-05-15T14:06:28.715Z,10.57
2023-05-15T14:08:57.270Z,4.18
2023-05-15T14:11:27.990Z,1.88
2023-05-15T14:13:57.487Z,2.72
2023-05-15T14:16:25.425Z,3.90
2023-05-15T14:18:53.613Z,1.92
2023-05-15T14:21:22.072Z,3.47
2023-05-15T14:23:49.881Z,4.32
2023-05-15T14:26:18.681Z,3.30
2023-05-15T14:28:47.166Z,1.73
2023-05-15T14:31:16.666Z,4.75
2023-05-15T14:33:44.966Z,2.50
2023-05-15T14:36:13.546Z,3.45
2023-05-15T14:38:45.521Z,3.55
2023-05-15T14:41:13.826Z,3.42
2023-05-15T14:43:42.650Z,3.28
2023-05-15T14:46:11.528Z,6.03
2023-05-15T14:48:41.080Z,4.25
2023-05-15T14:51:09.998Z,3.78
2023-05-15T14:53:37.971Z,3.55
2023-05-15T14:56:07.150Z,3.20
2023-05-15T14:58:35.130Z,9.23
2023-05-15T15:01:03.769Z,7.15
2023-05-15T15:03:33.355Z,8.18
2023-05-15T15:06:04.212Z,3.05
2023-05-15T15:08:32.085Z,6.32
2023-05-15T15:11:00.036Z,5.15
2023-05-15T15:13:29.816Z,4.65
2023-05-15T15:15:58.044Z,4.10
2023-05-15T15:18:26.384Z,3.35
2023-05-15T15:20:54.446Z,3.70
2023-05-15T15:23:24.014Z,4.63
2023-05-15T15:25:51.873Z,3.17
2023-05-15T15:28:22.633Z,5.35
2023-05-15T15:30:50.666Z,2.85
2023-05-15T15:33:19.313Z,4.93
2023-05-15T15:35:47.350Z,5.22
2023-05-15T15:38:15.180Z,4.28
2023-05-15T15:40:44.550Z,6.45
2023-05-15T15:43:12.620Z,3.95
2023-05-15T15:45:40.608Z,9.18
2023-05-15T15:48:08.675Z,5.55
2023-05-15T15:50:36.681Z,9.23
2023-05-15T15:53:04.768Z,7.15
2023-05-15T15:55:40.948Z,4.05
2023-05-15T15:58:12.698Z,3.92
2023-05-15T16:00:41.300Z,5.93
2023-05-15T16:03:11.886Z,4.43
2023-05-15T16:05:39.915Z,5.47
2023-05-15T16:08:07.834Z,6.15
2023-05-15T16:10:35.738Z,6.28
2023-05-15T16:13:03.880Z,4.28
2023-05-15T16:15:57.113Z,3.97
2023-05-15T16:18:25.176Z,3.05
2023-05-15T16:20:53.538Z,5.35
2023-05-15T16:23:47.611Z,2.10
2023-05-15T16:26:15.821Z,10.02
2023-05-15T16:28:43.772Z,7.03
2023-05-15T16:31:13.238Z,6.47
2023-05-15T16:33:41.270Z,6.05
2023-05-15T16:36:09.994Z,7.75
2023-05-15T16:38:37.852Z,7.38
2023-05-15T16:41:05.924Z,5.28
2023-05-15T16:43:33.997Z,5.75
2023-05-15T16:46:02.236Z,5.55
2023-05-15T16:48:31.685Z,4.70
2023-05-15T16:51:00.258Z,4.38
2023-05-15T16:53:29.331Z,5.43
2023-05-15T16:55:57.586Z,7.85
2023-05-15T16:58:25.567Z,6.55
2023-05-15T17:00:59.750Z,5.82
2023-05-15T17:03:28.031Z,5.72
2023-05-15T17:06:00.406Z,5.25
2023-05-15T17:08:37.036Z,7.15
2023-05-15T17:11:08.254Z,4.55
2023-05-15T17:13:36.169Z,5.20
2023-05-15T17:16:07.167Z,7.10
2023-05-15T17:18:35.242Z,8.05
2023-05-15T17:21:04.820Z,5.45
2023-05-15T17:23:32.764Z,5.60
2023-05-15T17:26:01.066Z,3.53
2023-05-15T17:28:28.991Z,4.43
2023-05-15T17:30:57.528Z,4.00
2023-05-15T17:33:25.572Z,3.55
2023-05-15T17:35:54.170Z,31.48
2023-05-15T17:38:23.677Z,25.25
2023-05-15T17:40:54.565Z,6.03
2023-05-15T17:43:23.654Z,7.35
2023-05-15T17:45:51.936Z,10.45
2023-05-15T17:48:19.871Z,8.13
2023-05-15T17:50:48.168Z,10.60
2023-05-15T17:53:18.112Z,7.75
2023-05-15T17:55:47.926Z,6.75
2023-05-15T17:58:15.923Z,11.63
2023-05-15T18:00:44.657Z,8.30
2023-05-15T18:03:12.770Z,4.72
2023-05-15T18:05:42.170Z,3.13
2023-05-15T18:08:10.339Z,7.75
2023-05-15T18:10:38.350Z,8.85
2023-05-15T18:13:09.155Z,6.60
2023-05-15T18:15:37.123Z,4.68
2023-05-15T18:18:05.517Z,7.03
2023-05-15T18:20:33.467Z,4.20
2023-05-15T18:23:01.402Z,4.70
2023-05-15T18:25:29.327Z,6.07
2023-05-15T18:27:57.731Z,3.55
2023-05-15T18:30:27.027Z,2.50
2023-05-15T18:32:55.222Z,5.32
2023-05-15T18:35:24.266Z,2.97
2023-05-15T18:37:52.361Z,9.40
2023-05-15T18:40:20.929Z,2.50
2023-05-15T18:42:51.673Z,2.65
2023-05-15T18:45:22.067Z,3.40
2023-05-15T18:47:52.038Z,2.65
2023-05-15T18:50:21.838Z,2.70
2023-05-15T18:52:50.309Z,8.13
2023-05-15T18:55:18.259Z,5.72
2023-05-15T18:57:46.329Z,3.15
2023-05-15T19:00:18.911Z,2.92
2023-05-15T19:02:54.347Z,9.30
2023-05-15T19:05:22.546Z,4.07
2023-05-15T19:07:50.429Z,5.53
2023-05-15T19:10:18.382Z,10.25
2023-05-15T19:12:46.430Z,7.18
2023-05-15T19:15:16.986Z,9.02
2023-05-15T19:17:46.101Z,4.40
2023-05-15T19:20:16.338Z,8.90
2023-05-15T19:22:44.356Z,6.78
2023-05-15T19:25:12.567Z,8.90
2023-05-15T19:27:40.519Z,12.07
2023-05-15T19:30:09.566Z,33.10
2023-05-15T19:32:37.856Z,22.73
2023-05-15T19:35:06.520Z,39.70
2023-05-15T19:37:36.434Z,24.30
2023-05-15T19:40:05.885Z,16.42
2023-05-15T19:42:33.797Z,12.60
2023-05-15T19:45:04.870Z,13.68
2023-05-15T19:47:32.787Z,18.13
2023-05-15T19:50:00.688Z,9.27
2023-05-15T19:52:30.778Z,8.30
2023-05-15T19:55:01.225Z,9.02
2023-05-15T19:57:29.072Z,8.55
2023-05-15T19:59:57.177Z,8.45
2023-05-15T20:02:25.223Z,10.38
2023-05-15T20:04:53.921Z,7.65
2023-05-15T20:07:21.917Z,8.63
2023-05-15T20:09:52.338Z,7.00
2023-05-15T20:12:23.982Z,10.30
2023-05-15T20:14:52.134Z,7.85
2023-05-15T20:17:20.533Z,12.82
2023-05-15T20:19:49.548Z,5.68
2023-05-15T20:22:18.321Z,7.10
2023-05-15T20:24:46.979Z,5.07
2023-05-15T20:27:14.864Z,10.88
2023-05-15T20:29:45.311Z,6.32
2023-05-15T20:32:13.754Z,7.72
2023-05-15T20:34:46.748Z,13.98
2023-05-15T20:37:14.971Z,10.63
2023-05-15T20:39:43.067Z,16.10
2023-05-15T20:42:11.648Z,8.02
2023-05-15T20:44:39.617Z,10.77
2023-05-15T20:47:08.886Z,13.90
2023-05-15T20:49:36.829Z,7.30
2023-05-15T20:52:05.341Z,7.93
2023-05-15T20:54:33.456Z,33.40
2023-05-15T20:57:01.327Z,30.25
2023-05-15T20:59:29.353Z,9.27
2023-05-15T21:01:57.301Z,6.80
2023-05-15T21:04:27.435Z,8.98
2023-05-15T21:06:56.349Z,9.98
2023-05-15T21:09:24.569Z,8.82
2023-05-15T21:11:52.506Z,7.05
2023-05-15T21:14:20.476Z,8.23
2023-05-15T21:16:48.558Z,6.75
2023-05-15T21:19:16.655Z,8.07
2023-05-15T21:21:46.330Z,7.47
2023-05-15T21:24:15.154Z,7.13
2023-05-15T21:26:43.228Z,5.10
2023-05-15T21:29:11.360Z,11.15
2023-05-15T21:31:39.472Z,10.20
2023-05-15T21:34:08.052Z,9.40
2023-05-15T21:36:36.126Z,9.25
2023-05-15T21:39:09.515Z,8.30
2023-05-15T21:41:37.436Z,5.72
2023-05-15T21:44:05.617Z,5.82
2023-05-15T21:46:33.551Z,9.05
2023-05-15T21:49:02.176Z,5.95
2023-05-15T21:51:30.108Z,5.55
2023-05-15T21:53:58.119Z,5.47
2023-05-15T21:56:27.476Z,3.05
2023-05-15T21:58:55.548Z,7.07
2023-05-15T22:01:23.444Z,5.25
2023-05-15T22:03:51.518Z,5.20
2023-05-15T22:06:19.627Z,4.43
2023-05-15T22:08:47.486Z,5.15
2023-05-15T22:11:15.486Z,7.60
2023-05-15T22:13:45.246Z,3.80
2023-05-15T22:16:13.321Z,5.63
2023-05-15T22:18:42.158Z,8.25
2023-05-15T22:21:10.209Z,6.80
2023-05-15T22:23:38.080Z,7.93
2023-05-15T22:26:05.981Z,7.55
2023-05-15T22:28:33.891Z,6.63
2023-05-15T22:31:03.334Z,16.55
2023-05-15T22:33:31.285Z,18.55
2023-05-15T22:35:59.160Z,24.70
2023-05-15T22:38:27.308Z,33.90
2023-05-15T22:40:55.653Z,8.00
2023-05-15T22:43:23.646Z,9.00
2023-05-15T22:45:52.419Z,10.75
2023-05-15T22:48:23.206Z,9.00
2023-05-15T22:50:52.282Z,9.48
2023-05-15T22:53:20.216Z,8.10
2023-05-15T22:55:48.208Z,7.57
2023-05-15T22:58:16.629Z,6.20
2023-05-15T23:00:44.604Z,10.35
2023-05-15T23:03:12.577Z,6.60
2023-05-15T23:05:42.198Z,8.77
2023-05-15T23:08:10.138Z,9.20
2023-05-15T23:10:38.239Z,6.47
2023-05-15T23:13:06.200Z,10.50
2023-05-15T23:15:34.320Z,7.10
2023-05-15T23:18:02.413Z,8.90
2023-05-15T23:20:30.611Z,7.80
2023-05-15T23:23:00.032Z,12.85
2023-05-15T23:25:27.908Z,7.95
2023-05-15T23:27:56.265Z,10.23
2023-05-15T23:30:24.368Z,11.63
2023-05-15T23:32:52.406Z,6.90
2023-05-15T23:35:20.592Z,9.85
2023-05-15T23:37:48.639Z,9.48
2023-05-15T23:40:18.144Z,10.45
2023-05-15T23:42:46.815Z,8.07
2023-05-15T23:45:22.684Z,6.30
2023-05-15T23:47:50.650Z,8.13
2023-05-15T23:50:18.724Z,8.73
2023-05-15T23:52:47.178Z,7.07
2023-05-15T23:55:15.146Z,10.98
2023-05-15T23:57:46.942Z,6.20
